createdAt,value
2022-11-20T00:01:26.973Z,100.00
2022-11-20T00:03:56.668Z,100.00
2022-11-20T00:06:24.586Z,100.00
2022-11-20T00:08:52.241Z,100.00
2022-11-20T00:11:23.366Z,100.00
2022-11-20T00:13:54.319Z,100.00
2022-11-20T00:16:25.510Z,100.00
2022-11-20T00:18:53.249Z,100.00
2022-11-20T00:21:30.183Z,100.00
2022-11-20T00:23:58.340Z,100.00
2022-11-20T00:26:27.220Z,100.00
2022-11-20T00:28:57.872Z,100.00
2022-11-20T00:31:25.148Z,100.00
2022-11-20T00:33:51.938Z,100.00
2022-11-20T00:36:24.579Z,100.00
2022-11-20T00:38:58.996Z,100.00
2022-11-20T00:41:28.237Z,100.00
2022-11-20T00:43:56.711Z,100.00
2022-11-20T00:46:26.645Z,100.00
2022-11-20T00:48:53.497Z,100.00
2022-11-20T00:51:24.239Z,100.00
2022-11-20T00:53:51.506Z,100.00
2022-11-20T00:56:20.286Z,100.00
2022-11-20T00:58:49.297Z,100.00
2022-11-20T01:01:25.825Z,100.00
2022-11-20T01:03:56.473Z,100.00
2022-11-20T01:06:38.115Z,100.00
2022-11-20T01:09:08.874Z,100.00
2022-11-20T01:11:39.918Z,100.00
2022-11-20T01:14:11.384Z,100.00
2022-11-20T01:16:49.146Z,100.00
2022-11-20T01:19:20.925Z,100.00
2022-11-20T01:21:52.614Z,100.00
2022-11-20T01:24:21.594Z,100.00
2022-11-20T01:26:50.973Z,100.00
2022-11-20T01:29:22.781Z,100.00
2022-11-20T01:31:50.059Z,100.00
2022-11-20T01:34:20.295Z,100.00
2022-11-20T01:36:47.667Z,100.00
2022-11-20T01:39:26.760Z,100.00
2022-11-20T01:42:14.357Z,100.00
2022-11-20T01:44:59.174Z,100.00
2022-11-20T01:47:46.435Z,100.00
2022-11-20T01:50:26.296Z,100.00
2022-11-20T01:53:08.267Z,100.00
2022-11-20T01:55:46.508Z,100.00
2022-11-20T01:58:13.827Z,100.00
2022-11-20T02:00:41.939Z,100.00
2022-11-20T02:03:14.481Z,100.00
2022-11-20T02:05:46.298Z,100.00
2022-11-20T02:08:13.819Z,100.00
2022-11-20T02:10:41.734Z,100.00
2022-11-20T02:13:27.734Z,100.00
2022-11-20T02:15:54.887Z,100.00
2022-11-20T02:18:22.695Z,100.00
2022-11-20T02:20:55.379Z,100.00
2022-11-20T02:23:39.118Z,100.00
2022-11-20T02:26:10.414Z,100.00
2022-11-20T02:28:37.502Z,100.00
2022-11-20T02:31:04.527Z,100.00
2022-11-20T02:33:31.542Z,100.00
2022-11-20T02:35:58.404Z,100.00
2022-11-20T02:38:25.448Z,100.00
2022-11-20T02:40:55.542Z,100.00
2022-11-20T02:43:23.695Z,100.00
2022-11-20T02:45:50.490Z,100.00
2022-11-20T02:48:17.286Z,100.00
2022-11-20T02:50:44.097Z,100.00
2022-11-20T02:53:10.914Z,100.00
2022-11-20T02:55:37.737Z,100.00
2022-11-20T02:58:04.575Z,100.00
2022-11-20T03:00:31.556Z,100.00
2022-11-20T03:02:58.315Z,100.00
2022-11-20T03:05:25.093Z,100.00
2022-11-20T03:07:51.893Z,100.00
2022-11-20T03:10:18.688Z,100.00
2022-11-20T03:12:46.390Z,100.00
2022-11-20T03:15:13.269Z,100.00
2022-11-20T03:17:40.129Z,100.00
2022-11-20T03:20:08.085Z,100.00
2022-11-20T03:22:34.841Z,100.00
2022-11-20T03:25:01.640Z,100.00
2022-11-20T03:27:28.391Z,100.00
2022-11-20T03:29:55.171Z,100.00
2022-11-20T03:32:21.939Z,100.00
2022-11-20T03:34:48.766Z,100.00
2022-11-20T03:37:15.557Z,100.00
2022-11-20T03:39:42.358Z,100.00
2022-11-20T03:42:30.015Z,100.00
2022-11-20T03:44:56.843Z,100.00
2022-11-20T03:47:23.836Z,100.00
2022-11-20T03:49:50.814Z,100.00
2022-11-20T03:52:17.557Z,100.00
2022-11-20T03:54:44.396Z,100.00
2022-11-20T03:57:11.150Z,100.00
2022-11-20T03:59:37.992Z,100.00
2022-11-20T04:02:04.852Z,100.00
2022-11-20T04:04:31.709Z,100.00
2022-11-20T04:06:58.533Z,100.00
2022-11-20T04:09:25.364Z,100.00
2022-11-20T04:11:52.215Z,100.00
2022-11-20T04:14:18.966Z,100.00
2022-11-20T04:16:45.730Z,100.00
2022-11-20T04:19:15.818Z,100.00
2022-11-20T04:21:44.310Z,100.00
2022-11-20T04:24:13.745Z,100.00
2022-11-20T04:26:41.159Z,100.00
2022-11-20T04:29:11.620Z,100.00
2022-11-20T04:31:38.456Z,100.00
2022-11-20T04:34:07.979Z,100.00
2022-11-20T04:36:35.462Z,100.00
2022-11-20T04:39:06.236Z,100.00
2022-11-20T04:41:37.630Z,100.00
2022-11-20T04:44:06.698Z,100.00
2022-11-20T04:46:40.645Z,100.00
2022-11-20T04:49:08.699Z,100.00
2022-11-20T04:51:36.038Z,100.00
2022-11-20T04:54:02.937Z,100.00
2022-11-20T04:56:29.767Z,100.00
2022-11-20T04:58:56.681Z,100.00
2022-11-20T05:01:25.635Z,100.00
2022-11-20T05:03:53.004Z,100.00
2022-11-20T05:06:23.023Z,100.00
2022-11-20T05:08:50.288Z,100.00
2022-11-20T05:11:21.457Z,100.00
2022-11-20T05:13:49.547Z,100.00
2022-11-20T05:16:19.888Z,100.00
2022-11-20T05:18:47.596Z,100.00
2022-11-20T05:21:15.775Z,100.00
2022-11-20T05:23:44.088Z,100.00
2022-11-20T05:26:17.562Z,100.00
2022-11-20T05:28:44.699Z,100.00
2022-11-20T05:31:25.088Z,100.00
2022-11-20T05:33:53.816Z,100.00
2022-11-20T05:36:20.670Z,100.00
2022-11-20T05:38:50.583Z,100.00
2022-11-20T05:41:20.765Z,100.00
2022-11-20T05:43:49.381Z,100.00
2022-11-20T05:46:22.331Z,100.00
2022-11-20T05:48:52.046Z,100.00
2022-11-20T05:51:20.706Z,100.00
2022-11-20T05:53:48.757Z,100.00
2022-11-20T05:56:21.130Z,100.00
2022-11-20T05:58:49.156Z,100.00
2022-11-20T06:01:23.366Z,100.00
2022-11-20T06:03:51.595Z,100.00
2022-11-20T06:06:20.057Z,100.00
2022-11-20T06:08:46.904Z,100.00
2022-11-20T06:11:15.661Z,100.00
2022-11-20T06:13:43.033Z,100.00
2022-11-20T06:16:11.770Z,100.00
2022-11-20T06:18:38.928Z,100.00
2022-11-20T06:21:13.255Z,100.00
2022-11-20T06:23:41.212Z,100.00
2022-11-20T06:26:10.953Z,100.00
2022-11-20T06:28:38.331Z,100.00
2022-11-20T06:31:06.633Z,100.00
2022-11-20T06:33:33.885Z,100.00
2022-11-20T06:36:07.257Z,100.00
2022-11-20T06:38:37.559Z,100.00
2022-11-20T06:41:06.039Z,100.00
2022-11-20T06:43:32.972Z,100.00
2022-11-20T06:46:00.634Z,100.00
2022-11-20T06:48:29.012Z,100.00
2022-11-20T06:50:56.267Z,100.00
2022-11-20T06:53:23.939Z,100.00
2022-11-20T06:55:51.840Z,100.00
2022-11-20T06:58:19.364Z,100.00
2022-11-20T07:00:46.558Z,100.00
2022-11-20T07:03:13.725Z,100.00
2022-11-20T07:05:41.164Z,100.00
2022-11-20T07:08:09.099Z,100.00
2022-11-20T07:10:36.141Z,100.00
2022-11-20T07:13:03.157Z,100.00
2022-11-20T07:15:30.080Z,100.00
2022-11-20T07:17:59.874Z,100.00
2022-11-20T07:20:26.778Z,100.00
2022-11-20T07:22:58.646Z,100.00
2022-11-20T07:25:26.782Z,100.00
2022-11-20T07:27:53.754Z,100.00
2022-11-20T07:30:20.558Z,100.00
2022-11-20T07:32:51.381Z,100.00
2022-11-20T07:35:18.180Z,100.00
2022-11-20T07:37:46.581Z,100.00
2022-11-20T07:40:14.398Z,100.00
2022-11-20T07:42:49.893Z,100.00
2022-11-20T07:45:18.049Z,100.00
2022-11-20T07:47:44.855Z,100.00
2022-11-20T07:50:13.036Z,100.00
2022-11-20T07:52:39.911Z,100.00
2022-11-20T07:55:07.684Z,100.00
2022-11-20T07:57:34.581Z,100.00
2022-11-20T08:00:01.440Z,100.00
2022-11-20T08:02:28.311Z,100.00
2022-11-20T08:04:55.180Z,100.00
2022-11-20T08:07:22.070Z,100.00
2022-11-20T08:09:48.889Z,100.00
2022-11-20T08:12:40.707Z,100.00
2022-11-20T08:15:13.055Z,100.00
2022-11-20T08:17:40.412Z,100.00
2022-11-20T08:20:07.923Z,100.00
2022-11-20T08:22:35.663Z,100.00
2022-11-20T08:25:02.554Z,100.00
2022-11-20T08:27:29.739Z,100.00
2022-11-20T08:29:56.645Z,100.00
2022-11-20T08:32:23.727Z,100.00
2022-11-20T08:34:50.599Z,100.00
2022-11-20T08:37:17.399Z,100.00
2022-11-20T08:39:44.167Z,100.00
2022-11-20T08:42:11.106Z,100.00
2022-11-20T08:44:37.971Z,100.00
2022-11-20T08:47:04.767Z,100.00
2022-11-20T08:49:31.607Z,100.00
2022-11-20T08:51:58.433Z,100.00
2022-11-20T08:54:25.280Z,100.00
2022-11-20T08:56:52.114Z,100.00
2022-11-20T08:59:36.739Z,100.00
2022-11-20T09:02:05.684Z,100.00
2022-11-20T09:04:32.587Z,100.00
2022-11-20T09:07:01.292Z,100.00
2022-11-20T09:09:28.188Z,100.00
2022-11-20T09:11:55.072Z,100.00
2022-11-20T09:14:22.356Z,100.00
2022-11-20T09:16:49.187Z,100.00
2022-11-20T09:22:03.018Z,100.00
2022-11-20T09:24:29.912Z,100.00
2022-11-20T09:26:56.822Z,100.00
2022-11-20T09:29:23.870Z,100.00
2022-11-20T09:31:50.987Z,100.00
2022-11-20T09:34:17.837Z,100.00
2022-11-20T09:36:44.647Z,100.00
2022-11-20T09:39:11.407Z,100.00
2022-11-20T09:41:40.975Z,100.00
2022-11-20T09:44:48.289Z,100.00
2022-11-20T09:47:34.131Z,100.00
2022-11-20T09:50:49.617Z,100.00
2022-11-20T09:53:37.450Z,100.00
2022-11-20T09:56:05.894Z,100.00
2022-11-20T09:58:50.254Z,100.00
2022-11-20T10:01:20.599Z,100.00
2022-11-20T10:04:18.272Z,100.00
2022-11-20T10:07:37.513Z,100.00
2022-11-20T10:10:05.058Z,100.00
2022-11-20T10:12:43.734Z,100.00
2022-11-20T10:15:28.052Z,100.00
2022-11-20T10:18:27.756Z,100.00
2022-11-20T10:21:37.007Z,100.00
2022-11-20T10:24:25.964Z,100.00
2022-11-20T10:27:43.128Z,100.00
2022-11-20T10:30:12.608Z,100.00
2022-11-20T10:32:43.588Z,100.00
2022-11-20T10:35:29.825Z,100.00
2022-11-20T10:38:01.831Z,100.00
2022-11-20T10:40:54.393Z,100.00
2022-11-20T10:43:34.278Z,100.00
2022-11-20T10:46:15.357Z,100.00
2022-11-20T10:48:45.594Z,100.00
2022-11-20T10:51:31.004Z,100.00
2022-11-20T10:54:23.683Z,100.00
2022-11-20T10:56:58.096Z,100.00
2022-11-20T11:00:00.101Z,100.00
2022-11-20T11:02:43.216Z,100.00
2022-11-20T11:05:41.727Z,100.00
2022-11-20T11:08:15.985Z,100.00
2022-11-20T11:10:54.556Z,100.00
2022-11-20T11:13:31.701Z,100.00
2022-11-20T11:15:59.348Z,100.00
2022-11-20T11:18:35.065Z,100.00
2022-11-20T11:21:05.420Z,100.00
2022-11-20T11:23:43.653Z,100.00
2022-11-20T11:26:23.710Z,100.00
2022-11-20T11:29:01.617Z,100.00
2022-11-20T11:31:36.453Z,100.00
2022-11-20T11:34:23.620Z,100.00
2022-11-20T11:36:59.644Z,100.00
2022-11-20T11:39:29.923Z,100.00
2022-11-20T11:41:58.239Z,100.00
2022-11-20T11:44:54.441Z,100.00
2022-11-20T11:47:23.931Z,100.00
2022-11-20T11:50:21.963Z,100.00
2022-11-20T11:53:09.624Z,100.00
2022-11-20T11:55:47.777Z,100.00
2022-11-20T11:58:50.589Z,100.00
2022-11-20T12:01:35.055Z,100.00
2022-11-20T12:04:36.665Z,100.00
2022-11-20T12:07:44.786Z,100.00
2022-11-20T12:10:04.817Z,100.00
2022-11-20T12:12:41.875Z,100.00
2022-11-20T12:15:14.515Z,100.00
2022-11-20T12:17:41.295Z,100.00
2022-11-20T12:20:17.425Z,100.00
2022-11-20T12:23:00.963Z,100.00
2022-11-20T12:25:36.738Z,100.00
2022-11-20T12:29:04.008Z,100.00
2022-11-20T12:31:57.776Z,100.00
2022-11-20T12:34:33.377Z,100.00
2022-11-20T12:37:43.999Z,100.00
2022-11-20T12:40:35.595Z,100.00
2022-11-20T12:43:41.663Z,100.00
2022-11-20T12:46:29.380Z,100.00
2022-11-20T12:49:28.207Z,100.00
2022-11-20T12:52:22.149Z,100.00
2022-11-20T12:55:38.316Z,100.00
2022-11-20T12:58:32.488Z,100.00
2022-11-20T13:01:37.697Z,97.06
2022-11-20T13:04:31.273Z,98.14
2022-11-20T13:06:58.708Z,97.82
2022-11-20T13:09:26.755Z,95.88
2022-11-20T13:12:13.377Z,99.70
2022-11-20T13:15:33.009Z,100.00
2022-11-20T13:18:02.956Z,100.00
2022-11-20T13:20:32.024Z,95.63
2022-11-20T13:22:59.669Z,91.82
2022-11-20T13:25:36.491Z,91.20
2022-11-20T13:28:11.947Z,91.79
2022-11-20T13:30:55.017Z,92.90
2022-11-20T13:33:37.734Z,88.80
2022-11-20T13:36:06.614Z,88.54
2022-11-20T13:38:50.554Z,91.09
2022-11-20T13:41:40.383Z,91.29
2022-11-20T13:44:10.322Z,90.45
2022-11-20T13:46:46.719Z,89.76
2022-11-20T13:49:30.350Z,87.57
2022-11-20T13:52:49.868Z,86.98
2022-11-20T13:55:43.819Z,87.34
2022-11-20T13:58:49.094Z,86.85
2022-11-20T14:01:24.999Z,85.90
2022-11-20T14:04:08.585Z,84.17
2022-11-20T14:06:47.844Z,84.53
2022-11-20T14:09:30.964Z,86.44
2022-11-20T14:11:58.273Z,85.86
2022-11-20T14:14:30.551Z,87.29
2022-11-20T14:17:29.260Z,85.29
2022-11-20T14:20:06.535Z,83.14
2022-11-20T14:22:33.367Z,82.25
2022-11-20T14:25:17.405Z,81.68
2022-11-20T14:27:59.087Z,84.71
2022-11-20T14:30:48.427Z,85.68
2022-11-20T14:33:16.344Z,85.58
2022-11-20T14:35:53.082Z,89.06
2022-11-20T14:38:26.172Z,88.99
2022-11-20T14:40:53.832Z,85.81
2022-11-20T14:43:29.882Z,86.76
2022-11-20T14:46:04.485Z,84.53
2022-11-20T14:48:42.494Z,85.18
2022-11-20T14:51:24.226Z,83.85
2022-11-20T14:53:50.992Z,84.54
2022-11-20T14:56:25.969Z,86.89
2022-11-20T14:58:59.483Z,87.90
2022-11-20T15:01:32.742Z,87.90
2022-11-20T15:04:12.157Z,87.43
2022-11-20T15:06:50.975Z,87.72
2022-11-20T15:09:17.873Z,88.10
2022-11-20T15:11:57.313Z,88.68
2022-11-20T15:14:26.331Z,88.69
2022-11-20T15:16:53.885Z,89.90
2022-11-20T15:19:24.766Z,89.26
2022-11-20T15:21:52.059Z,89.24
2022-11-20T15:24:19.800Z,89.23
2022-11-20T15:26:46.809Z,89.59
2022-11-20T15:29:19.804Z,91.08
2022-11-20T15:31:46.708Z,90.79
2022-11-20T15:34:16.341Z,93.37
2022-11-20T15:36:44.494Z,94.43
2022-11-20T15:39:12.388Z,96.51
2022-11-20T15:41:39.750Z,97.44
2022-11-20T15:44:06.646Z,97.70
2022-11-20T15:46:39.453Z,98.14
2022-11-20T15:49:12.341Z,97.87
2022-11-20T15:51:42.844Z,98.27
2022-11-20T15:54:16.595Z,99.07
2022-11-20T15:56:43.427Z,100.00
2022-11-20T15:59:10.193Z,100.00
2022-11-20T16:01:37.445Z,99.81
2022-11-20T16:04:09.539Z,100.00
2022-11-20T16:06:36.309Z,100.00
2022-11-20T16:09:03.159Z,100.00
2022-11-20T16:11:30.048Z,100.00
2022-11-20T16:14:15.346Z,100.00
2022-11-20T16:16:43.994Z,100.00
2022-11-20T16:19:14.626Z,100.00
2022-11-20T16:21:42.571Z,100.00
2022-11-20T16:24:13.854Z,100.00
2022-11-20T16:26:41.242Z,100.00
2022-11-20T16:29:08.752Z,100.00
2022-11-20T16:31:35.670Z,100.00
2022-11-20T16:34:12.259Z,100.00
2022-11-20T16:36:50.263Z,100.00
2022-11-20T16:39:23.162Z,100.00
2022-11-20T16:41:50.332Z,100.00
2022-11-20T16:44:17.248Z,100.00
2022-11-20T16:46:44.020Z,100.00
2022-11-20T16:49:14.637Z,100.00
2022-11-20T16:51:41.728Z,100.00
2022-11-20T16:54:10.431Z,100.00
2022-11-20T16:56:37.369Z,100.00
2022-11-20T16:59:04.420Z,100.00
2022-11-20T17:01:32.697Z,100.00
2022-11-20T17:04:05.372Z,100.00
2022-11-20T17:06:35.489Z,100.00
2022-11-20T17:09:03.735Z,100.00
2022-11-20T17:11:31.338Z,100.00
2022-11-20T17:14:03.530Z,100.00
2022-11-20T17:16:31.540Z,100.00
2022-11-20T17:19:03.204Z,100.00
2022-11-20T17:21:32.517Z,100.00
2022-11-20T17:24:05.387Z,100.00
2022-11-20T17:26:33.280Z,100.00
2022-11-20T17:29:10.137Z,100.00
2022-11-20T17:31:38.617Z,100.00
2022-11-20T17:34:11.136Z,100.00
2022-11-20T17:36:44.819Z,100.00
2022-11-20T17:39:17.103Z,100.00
2022-11-20T17:41:44.185Z,100.00
2022-11-20T17:44:12.452Z,100.00
2022-11-20T17:46:39.402Z,100.00
2022-11-20T17:49:06.351Z,100.00
2022-11-20T17:51:35.020Z,100.00
2022-11-20T17:54:07.176Z,100.00
2022-11-20T17:56:54.232Z,100.00
2022-11-20T17:59:21.264Z,100.00
2022-11-20T18:01:48.217Z,100.00
2022-11-20T18:04:15.095Z,100.00
2022-11-20T18:06:43.170Z,100.00
2022-11-20T18:09:10.946Z,100.00
2022-11-20T18:11:40.298Z,100.00
2022-11-20T18:14:31.075Z,100.00
2022-11-20T18:17:07.831Z,99.86
2022-11-20T18:19:47.730Z,98.52
2022-11-20T18:22:22.757Z,98.23
2022-11-20T18:24:49.934Z,94.95
2022-11-20T18:27:20.060Z,95.34
2022-11-20T18:29:52.252Z,96.01
2022-11-20T18:32:21.851Z,96.17
2022-11-20T18:34:48.876Z,96.52
2022-11-20T18:37:16.594Z,95.00
2022-11-20T18:39:43.752Z,94.01
2022-11-20T18:42:34.826Z,94.42
2022-11-20T18:45:04.348Z,95.53
2022-11-20T18:47:37.741Z,96.02
2022-11-20T18:50:07.700Z,96.72
2022-11-20T18:52:44.567Z,98.48
2022-11-20T18:55:12.597Z,99.17
2022-11-20T18:57:39.510Z,98.37
2022-11-20T19:00:09.918Z,98.39
2022-11-20T19:02:42.145Z,100.00
2022-11-20T19:05:14.703Z,99.58
2022-11-20T19:07:41.871Z,94.51
2022-11-20T19:10:09.081Z,95.81
2022-11-20T19:12:35.919Z,93.72
2022-11-20T19:15:02.936Z,92.02
2022-11-20T19:17:29.723Z,93.54
2022-11-20T19:19:56.540Z,89.42
2022-11-20T19:22:23.436Z,90.58
2022-11-20T19:24:50.283Z,93.49
2022-11-20T19:27:17.140Z,94.17
2022-11-20T19:29:44.323Z,94.65
2022-11-20T19:32:11.246Z,98.75
2022-11-20T19:34:38.024Z,98.89
2022-11-20T19:37:05.520Z,97.90
2022-11-20T19:39:32.349Z,100.00
2022-11-20T19:41:59.121Z,100.00
2022-11-20T19:44:25.968Z,98.49
2022-11-20T19:46:52.834Z,99.97
2022-11-20T19:49:19.693Z,100.00
2022-11-20T19:51:48.978Z,100.00
2022-11-20T19:54:16.855Z,100.00
2022-11-20T19:56:45.287Z,97.27
2022-11-20T19:59:12.954Z,99.07
2022-11-20T20:01:39.981Z,99.32
2022-11-20T20:04:07.140Z,100.00
2022-11-20T20:06:38.966Z,100.00
2022-11-20T20:09:12.083Z,99.12
2022-11-20T20:11:40.004Z,100.00
2022-11-20T20:14:10.810Z,100.00
2022-11-20T20:16:37.662Z,100.00
2022-11-20T20:19:05.865Z,98.98
2022-11-20T20:21:35.202Z,99.76
2022-11-20T20:24:02.804Z,100.00
2022-11-20T20:26:31.641Z,100.00
2022-11-20T20:28:59.413Z,100.00
2022-11-20T20:31:29.685Z,98.16
2022-11-20T20:33:57.321Z,100.00
2022-11-20T20:36:25.009Z,100.00
2022-11-20T20:38:59.540Z,100.00
2022-11-20T20:41:26.455Z,99.53
2022-11-20T20:44:12.340Z,100.00
2022-11-20T20:46:39.910Z,99.95
2022-11-20T20:49:07.335Z,100.00
2022-11-20T20:51:34.953Z,100.00
2022-11-20T20:54:01.824Z,100.00
2022-11-20T20:56:28.643Z,100.00
2022-11-20T20:58:55.496Z,98.72
2022-11-20T21:01:22.886Z,100.00
2022-11-20T21:03:49.823Z,100.00
2022-11-20T21:06:16.606Z,100.00
2022-11-20T21:08:44.585Z,100.00
2022-11-20T21:11:17.450Z,100.00
2022-11-20T21:13:46.496Z,100.00
2022-11-20T21:16:16.358Z,100.00
2022-11-20T21:18:43.217Z,100.00
2022-11-20T21:21:32.333Z,100.00
2022-11-20T21:23:59.556Z,100.00
2022-11-20T21:26:26.458Z,100.00
2022-11-20T21:28:53.776Z,100.00
2022-11-20T21:31:24.684Z,100.00
2022-11-20T21:33:54.688Z,100.00
2022-11-20T21:36:28.154Z,100.00
2022-11-20T21:38:56.834Z,100.00
2022-11-20T21:41:26.540Z,100.00
2022-11-20T21:44:29.201Z,100.00
2022-11-20T21:46:44.604Z,100.00
2022-11-20T21:49:11.716Z,100.00
2022-11-20T21:51:38.636Z,100.00
2022-11-20T21:54:05.727Z,100.00
2022-11-20T21:56:32.549Z,100.00
2022-11-20T21:58:59.445Z,100.00
2022-11-20T22:01:29.467Z,100.00
2022-11-20T22:04:02.093Z,100.00
2022-11-20T22:06:34.372Z,100.00
2022-11-20T22:09:02.595Z,100.00
2022-11-20T22:11:30.437Z,100.00
2022-11-20T22:14:16.243Z,100.00
2022-11-20T22:16:43.107Z,100.00
2022-11-20T22:19:10.010Z,100.00
2022-11-20T22:21:40.017Z,100.00
2022-11-20T22:24:06.999Z,100.00
2022-11-20T22:26:40.336Z,100.00
2022-11-20T22:29:08.532Z,100.00
2022-11-20T22:31:35.313Z,100.00
2022-11-20T22:34:02.774Z,100.00
2022-11-20T22:36:31.723Z,100.00
2022-11-20T22:38:58.780Z,100.00
2022-11-20T22:41:28.334Z,100.00
2022-11-20T22:44:04.145Z,100.00
2022-11-20T22:46:36.708Z,100.00
2022-11-20T22:49:10.913Z,100.00
2022-11-20T22:51:40.675Z,100.00
2022-11-20T22:54:09.342Z,100.00
2022-11-20T22:56:36.108Z,100.00
2022-11-20T22:59:02.995Z,100.00
2022-11-20T23:01:36.627Z,100.00
2022-11-20T23:04:06.655Z,100.00
2022-11-20T23:06:36.526Z,100.00
2022-11-20T23:09:05.843Z,100.00
2022-11-20T23:11:33.204Z,100.00
2022-11-20T23:14:15.274Z,100.00
2022-11-20T23:16:42.448Z,100.00
2022-11-20T23:19:13.080Z,100.00
2022-11-20T23:21:41.909Z,100.00
2022-11-20T23:24:09.714Z,100.00
2022-11-20T23:26:39.218Z,100.00
2022-11-20T23:29:06.856Z,100.00
2022-11-20T23:31:35.536Z,100.00
2022-11-20T23:34:02.969Z,100.00
2022-11-20T23:36:29.894Z,100.00
2022-11-20T23:38:56.926Z,100.00
2022-11-20T23:41:23.740Z,100.00
2022-11-20T23:43:50.653Z,100.00
2022-11-20T23:46:17.563Z,100.00
2022-11-20T23:48:45.190Z,100.00
2022-11-20T23:51:13.262Z,100.00
2022-11-20T23:53:40.111Z,100.00
2022-11-20T23:56:07.007Z,100.00
2022-11-20T23:58:38.614Z,100.00
